sensor_id;sensor_type;location;lat;lon;timestamp;pressure;altitude;pressure_sealevel;temperature;humidity
56594;BME280;42474;51.660;5.824;2022-10-22T00:03:52;100870.0;;;13.8;88.5
56594;BME280;42474;51.660;5.824;2022-10-22T00:08:52;100880.0;;;13.8;88.5
56594;BME280;42474;51.660;5.824;2022-10-22T00:13:52;100870.0;;;13.8;89.0
56594;BME280;42474;51.660;5.824;2022-10-22T00:18:52;100880.0;;;13.8;89.0
56594;BME280;42474;51.660;5.824;2022-10-22T00:23:52;100870.0;;;13.8;89.0
56594;BME280;42474;51.660;5.824;2022-10-22T00:28:53;100870.0;;;13.8;89.5
56594;BME280;42474;51.660;5.824;2022-10-22T00:33:52;100870.0;;;13.7;89.5
56594;BME280;42474;51.660;5.824;2022-10-22T00:38:52;100880.0;;;13.7;89.5
56594;BME280;42474;51.660;5.824;2022-10-22T00:44:00;100870.0;;;13.6;89.5
56594;BME280;42474;51.660;5.824;2022-10-22T00:48:54;100870.0;;;13.6;89.5
56594;BME280;42474;51.660;5.824;2022-10-22T00:53:54;100870.0;;;13.5;89.5
56594;BME280;42474;51.660;5.824;2022-10-22T00:58:58;100880.0;;;13.5;89.5
56594;BME280;42474;51.660;5.824;2022-10-22T01:03:53;100880.0;;;13.5;89.5
56594;BME280;42474;51.660;5.824;2022-10-22T01:08:59;100890.0;;;13.4;89.5
56594;BME280;42474;51.660;5.824;2022-10-22T01:14:02;100880.0;;;13.4;89.5
56594;BME280;42474;51.660;5.824;2022-10-22T01:19:01;100880.0;;;13.3;90.0
56594;BME280;42474;51.660;5.824;2022-10-22T01:24:22;100880.0;;;13.3;90.0
56594;BME280;42474;51.660;5.824;2022-10-22T01:29:10;100890.0;;;13.2;90.0
56594;BME280;42474;51.660;5.824;2022-10-22T01:33:53;100880.0;;;13.1;90.0
56594;BME280;42474;51.660;5.824;2022-10-22T01:38:53;100880.0;;;13.1;90.0
56594;BME280;42474;51.660;5.824;2022-10-22T01:43:52;100870.0;;;13.0;90.5
56594;BME280;42474;51.660;5.824;2022-10-22T01:49:25;100880.0;;;13.0;90.5
56594;BME280;42474;51.660;5.824;2022-10-22T01:54:44;100870.0;;;12.9;90.5
56594;BME280;42474;51.660;5.824;2022-10-22T01:59:25;100860.0;;;12.9;90.5
56594;BME280;42474;51.660;5.824;2022-10-22T02:03:57;100870.0;;;12.8;90.5
56594;BME280;42474;51.660;5.824;2022-10-22T02:08:53;100860.0;;;12.8;90.5
56594;BME280;42474;51.660;5.824;2022-10-22T02:13:56;100860.0;;;12.8;90.5
56594;BME280;42474;51.660;5.824;2022-10-22T02:18:56;100870.0;;;12.8;90.5
56594;BME280;42474;51.660;5.824;2022-10-22T02:23:52;100860.0;;;12.8;90.5
56594;BME280;42474;51.660;5.824;2022-10-22T02:29:01;100860.0;;;12.7;91.0
56594;BME280;42474;51.660;5.824;2022-10-22T02:33:55;100870.0;;;12.6;91.0
56594;BME280;42474;51.660;5.824;2022-10-22T02:38:53;100870.0;;;12.6;91.5
56594;BME280;42474;51.660;5.824;2022-10-22T02:43:54;100860.0;;;12.6;91.0
56594;BME280;42474;51.660;5.824;2022-10-22T02:48:53;100870.0;;;12.6;91.5
56594;BME280;42474;51.660;5.824;2022-10-22T02:53:52;100870.0;;;12.5;91.5
56594;BME280;42474;51.660;5.824;2022-10-22T02:58:52;100860.0;;;12.5;91.5
56594;BME280;42474;51.660;5.824;2022-10-22T03:03:52;100860.0;;;12.6;91.5
56594;BME280;42474;51.660;5.824;2022-10-22T03:08:52;100870.0;;;12.6;91.5
56594;BME280;42474;51.660;5.824;2022-10-22T03:13:52;100870.0;;;12.6;92.0
56594;BME280;42474;51.660;5.824;2022-10-22T03:18:52;100880.0;;;12.6;92.0
56594;BME280;42474;51.660;5.824;2022-10-22T03:23:53;100870.0;;;12.6;91.5
56594;BME280;42474;51.660;5.824;2022-10-22T03:28:53;100880.0;;;12.6;91.5
56594;BME280;42474;51.660;5.824;2022-10-22T03:33:52;100880.0;;;12.6;92.0
56594;BME280;42474;51.660;5.824;2022-10-22T03:38:53;100890.0;;;12.7;92.0
56594;BME280;42474;51.660;5.824;2022-10-22T03:43:53;100910.0;;;12.7;92.5
56594;BME280;42474;51.660;5.824;2022-10-22T03:48:52;100890.0;;;12.8;93.0
56594;BME280;42474;51.660;5.824;2022-10-22T03:53:53;100910.0;;;12.8;92.5
56594;BME280;42474;51.660;5.824;2022-10-22T03:58:54;100910.0;;;12.9;92.5
56594;BME280;42474;51.660;5.824;2022-10-22T04:03:53;100910.0;;;12.9;92.5
56594;BME280;42474;51.660;5.824;2022-10-22T04:08:52;100920.0;;;12.9;92.5
56594;BME280;42474;51.660;5.824;2022-10-22T04:13:52;100920.0;;;13.0;93.0
56594;BME280;42474;51.660;5.824;2022-10-22T04:18:52;100920.0;;;13.0;93.0
56594;BME280;42474;51.660;5.824;2022-10-22T04:23:52;100920.0;;;13.1;93.0
56594;BME280;42474;51.660;5.824;2022-10-22T04:28:53;100930.0;;;13.2;93.5
56594;BME280;42474;51.660;5.824;2022-10-22T04:33:53;100920.0;;;13.3;93.5
56594;BME280;42474;51.660;5.824;2022-10-22T04:38:54;100930.0;;;13.4;94.0
56594;BME280;42474;51.660;5.824;2022-10-22T04:43:53;100920.0;;;13.5;94.0
56594;BME280;42474;51.660;5.824;2022-10-22T04:48:52;100930.0;;;13.6;94.0
56594;BME280;42474;51.660;5.824;2022-10-22T04:53:53;100930.0;;;13.7;94.0
56594;BME280;42474;51.660;5.824;2022-10-22T04:58:55;100920.0;;;13.7;94.0
56594;BME280;42474;51.660;5.824;2022-10-22T05:03:54;100940.0;;;13.8;94.0
56594;BME280;42474;51.660;5.824;2022-10-22T05:08:56;100940.0;;;13.8;94.0
56594;BME280;42474;51.660;5.824;2022-10-22T05:13:53;100940.0;;;13.8;94.0
56594;BME280;42474;51.660;5.824;2022-10-22T05:18:53;100940.0;;;13.9;94.0
56594;BME280;42474;51.660;5.824;2022-10-22T05:23:55;100940.0;;;13.9;94.0
56594;BME280;42474;51.660;5.824;2022-10-22T05:28:53;100940.0;;;14.0;94.0
56594;BME280;42474;51.660;5.824;2022-10-22T05:33:52;100940.0;;;14.0;94.5
56594;BME280;42474;51.660;5.824;2022-10-22T05:38:53;100940.0;;;14.1;94.5
56594;BME280;42474;51.660;5.824;2022-10-22T05:43:54;100950.0;;;14.1;94.5
56594;BME280;42474;51.660;5.824;2022-10-22T05:48:54;100950.0;;;14.1;94.5
56594;BME280;42474;51.660;5.824;2022-10-22T05:53:55;100950.0;;;14.2;94.5
56594;BME280;42474;51.660;5.824;2022-10-22T05:58:53;100960.0;;;14.3;94.5
56594;BME280;42474;51.660;5.824;2022-10-22T06:03:54;100970.0;;;14.4;94.5
56594;BME280;42474;51.660;5.824;2022-10-22T06:13:53;100980.0;;;14.5;94.5
56594;BME280;42474;51.660;5.824;2022-10-22T06:18:53;100990.0;;;14.5;94.5
56594;BME280;42474;51.660;5.824;2022-10-22T06:23:54;100990.0;;;14.6;94.5
56594;BME280;42474;51.660;5.824;2022-10-22T06:28:53;101000.0;;;14.6;94.5
56594;BME280;42474;51.660;5.824;2022-10-22T06:33:52;101010.0;;;14.6;94.0
56594;BME280;42474;51.660;5.824;2022-10-22T06:38:53;101020.0;;;14.6;94.5
56594;BME280;42474;51.660;5.824;2022-10-22T06:43:53;101020.0;;;14.6;94.0
56594;BME280;42474;51.660;5.824;2022-10-22T06:48:54;101040.0;;;14.6;94.0
56594;BME280;42474;51.660;5.824;2022-10-22T06:53:53;101040.0;;;14.6;94.0
56594;BME280;42474;51.660;5.824;2022-10-22T06:58:54;101060.0;;;14.7;94.0
56594;BME280;42474;51.660;5.824;2022-10-22T07:03:53;101070.0;;;14.8;94.0
56594;BME280;42474;51.660;5.824;2022-10-22T07:08:54;101060.0;;;14.8;94.0
56594;BME280;42474;51.660;5.824;2022-10-22T07:13:54;101060.0;;;14.9;94.0
56594;BME280;42474;51.660;5.824;2022-10-22T07:18:53;101070.0;;;15.0;94.0
56594;BME280;42474;51.660;5.824;2022-10-22T07:23:53;101070.0;;;15.0;94.0
56594;BME280;42474;51.660;5.824;2022-10-22T07:28:52;101090.0;;;15.1;94.0
56594;BME280;42474;51.660;5.824;2022-10-22T07:33:53;101090.0;;;15.2;93.5
56594;BME280;42474;51.660;5.824;2022-10-22T07:38:56;101100.0;;;15.2;93.5
56594;BME280;42474;51.660;5.824;2022-10-22T07:43:53;101100.0;;;15.3;93.5
56594;BME280;42474;51.660;5.824;2022-10-22T07:48:53;101110.0;;;15.3;93.5
56594;BME280;42474;51.660;5.824;2022-10-22T07:53:53;101110.0;;;15.4;93.0
56594;BME280;42474;51.660;5.824;2022-10-22T07:58:53;101120.0;;;15.4;93.0
56594;BME280;42474;51.660;5.824;2022-10-22T08:03:53;101130.0;;;15.5;92.5
56594;BME280;42474;51.660;5.824;2022-10-22T08:08:53;101130.0;;;15.5;92.5
56594;BME280;42474;51.660;5.824;2022-10-22T08:13:53;101130.0;;;15.5;92.5
56594;BME280;42474;51.660;5.824;2022-10-22T08:18:53;101140.0;;;15.6;92.5
56594;BME280;42474;51.660;5.824;2022-10-22T08:23:53;101150.0;;;15.7;92.5
56594;BME280;42474;51.660;5.824;2022-10-22T08:28:53;101150.0;;;15.8;92.5
56594;BME280;42474;51.660;5.824;2022-10-22T08:33:53;101150.0;;;16.0;92.5
56594;BME280;42474;51.660;5.824;2022-10-22T08:38:53;101150.0;;;16.1;92.0
56594;BME280;42474;51.660;5.824;2022-10-22T08:44:51;101160.0;;;16.2;91.5
56594;BME280;42474;51.660;5.824;2022-10-22T08:48:54;101160.0;;;16.4;91.5
56594;BME280;42474;51.660;5.824;2022-10-22T08:54:14;101160.0;;;16.6;91.0
56594;BME280;42474;51.660;5.824;2022-10-22T08:58:58;101180.0;;;16.7;90.0
56594;BME280;42474;51.660;5.824;2022-10-22T09:04:27;101190.0;;;16.9;89.5
56594;BME280;42474;51.660;5.824;2022-10-22T09:08:53;101200.0;;;17.1;89.0
56594;BME280;42474;51.660;5.824;2022-10-22T09:13:55;101200.0;;;17.2;88.5
56594;BME280;42474;51.660;5.824;2022-10-22T09:19:02;101210.0;;;17.3;87.5
56594;BME280;42474;51.660;5.824;2022-10-22T09:24:13;101210.0;;;17.4;87.0
56594;BME280;42474;51.660;5.824;2022-10-22T09:28:53;101210.0;;;17.5;86.5
56594;BME280;42474;51.660;5.824;2022-10-22T09:33:53;101220.0;;;17.5;86.0
56594;BME280;42474;51.660;5.824;2022-10-22T09:38:53;101220.0;;;17.6;86.0
56594;BME280;42474;51.660;5.824;2022-10-22T09:43:53;101230.0;;;17.6;85.5
56594;BME280;42474;51.660;5.824;2022-10-22T09:49:02;101240.0;;;17.6;85.5
56594;BME280;42474;51.660;5.824;2022-10-22T09:53:57;101240.0;;;17.6;84.5
56594;BME280;42474;51.660;5.824;2022-10-22T09:58:55;101250.0;;;17.6;84.5
56594;BME280;42474;51.660;5.824;2022-10-22T10:03:53;101250.0;;;17.6;84.5
56594;BME280;42474;51.660;5.824;2022-10-22T10:08:53;101270.0;;;17.6;84.5
56594;BME280;42474;51.660;5.824;2022-10-22T10:14:01;101270.0;;;17.6;84.5
56594;BME280;42474;51.660;5.824;2022-10-22T10:19:19;101280.0;;;17.7;84.0
56594;BME280;42474;51.660;5.824;2022-10-22T10:24:40;101290.0;;;17.7;84.0
56594;BME280;42474;51.660;5.824;2022-10-22T10:29:11;101280.0;;;17.8;84.0
56594;BME280;42474;51.660;5.824;2022-10-22T10:34:13;101290.0;;;17.9;83.5
56594;BME280;42474;51.660;5.824;2022-10-22T10:38:55;101290.0;;;18.1;83.0
56594;BME280;42474;51.660;5.824;2022-10-22T10:44:15;101300.0;;;18.1;82.5
56594;BME280;42474;51.660;5.824;2022-10-22T10:49:04;101310.0;;;18.2;82.5
56594;BME280;42474;51.660;5.824;2022-10-22T10:54:14;101310.0;;;18.2;82.0
56594;BME280;42474;51.660;5.824;2022-10-22T10:59:00;101310.0;;;18.3;81.5
56594;BME280;42474;51.660;5.824;2022-10-22T11:04:53;101310.0;;;18.4;81.5
56594;BME280;42474;51.660;5.824;2022-10-22T11:08:58;101310.0;;;18.5;81.0
56594;BME280;42474;51.660;5.824;2022-10-22T11:13:56;101300.0;;;18.6;81.0
56594;BME280;42474;51.660;5.824;2022-10-22T11:19:00;101290.0;;;18.7;80.5
56594;BME280;42474;51.660;5.824;2022-10-22T11:24:02;101310.0;;;18.9;79.5
56594;BME280;42474;51.660;5.824;2022-10-22T11:28:53;101310.0;;;18.9;79.0
56594;BME280;42474;51.660;5.824;2022-10-22T11:34:12;101310.0;;;19.0;79.0
56594;BME280;42474;51.660;5.824;2022-10-22T11:38:53;101300.0;;;19.2;79.5
56594;BME280;42474;51.660;5.824;2022-10-22T11:44:09;101300.0;;;19.4;78.0
56594;BME280;42474;51.660;5.824;2022-10-22T11:49:02;101300.0;;;19.5;77.0
56594;BME280;42474;51.660;5.824;2022-10-22T11:53:57;101310.0;;;19.5;76.5
56594;BME280;42474;51.660;5.824;2022-10-22T11:58:54;101300.0;;;19.5;75.5
56594;BME280;42474;51.660;5.824;2022-10-22T12:04:15;101300.0;;;19.5;74.5
56594;BME280;42474;51.660;5.824;2022-10-22T12:08:56;101300.0;;;19.5;75.0
56594;BME280;42474;51.660;5.824;2022-10-22T12:14:01;101300.0;;;19.6;74.5
56594;BME280;42474;51.660;5.824;2022-10-22T12:18:57;101290.0;;;19.6;74.0
56594;BME280;42474;51.660;5.824;2022-10-22T12:23:53;101300.0;;;19.6;75.0
56594;BME280;42474;51.660;5.824;2022-10-22T12:28:56;101300.0;;;19.7;73.5
56594;BME280;42474;51.660;5.824;2022-10-22T12:33:56;101300.0;;;19.7;72.5
56594;BME280;42474;51.660;5.824;2022-10-22T12:38:53;101300.0;;;19.7;72.0
56594;BME280;42474;51.660;5.824;2022-10-22T12:43:57;101320.0;;;19.6;72.0
56594;BME280;42474;51.660;5.824;2022-10-22T12:48:53;101310.0;;;19.6;72.0
56594;BME280;42474;51.660;5.824;2022-10-22T12:53:56;101320.0;;;19.6;71.5
56594;BME280;42474;51.660;5.824;2022-10-22T12:58:56;101310.0;;;19.5;72.0
56594;BME280;42474;51.660;5.824;2022-10-22T13:04:15;101310.0;;;19.5;72.0
56594;BME280;42474;51.660;5.824;2022-10-22T13:09:01;101320.0;;;19.5;72.5
56594;BME280;42474;51.660;5.824;2022-10-22T13:14:00;101320.0;;;19.6;72.0
56594;BME280;42474;51.660;5.824;2022-10-22T13:18:53;101310.0;;;19.7;72.5
56594;BME280;42474;51.660;5.824;2022-10-22T13:23:56;101290.0;;;20.0;72.0
56594;BME280;42474;51.660;5.824;2022-10-22T13:28:54;101300.0;;;20.2;71.0
56594;BME280;42474;51.660;5.824;2022-10-22T13:33:55;101300.0;;;20.3;70.5
56594;BME280;42474;51.660;5.824;2022-10-22T13:38:53;101300.0;;;20.3;70.0
56594;BME280;42474;51.660;5.824;2022-10-22T13:43:54;101300.0;;;20.3;70.0
56594;BME280;42474;51.660;5.824;2022-10-22T13:48:54;101300.0;;;20.4;69.0
56594;BME280;42474;51.660;5.824;2022-10-22T13:53:53;101300.0;;;20.3;69.0
56594;BME280;42474;51.660;5.824;2022-10-22T13:58:53;101300.0;;;20.4;68.5
56594;BME280;42474;51.660;5.824;2022-10-22T14:03:54;101300.0;;;20.6;68.0
56594;BME280;42474;51.660;5.824;2022-10-22T14:08:57;101300.0;;;20.6;67.5
56594;BME280;42474;51.660;5.824;2022-10-22T14:13:53;101310.0;;;20.6;67.5
56594;BME280;42474;51.660;5.824;2022-10-22T14:18:54;101300.0;;;20.5;67.5
56594;BME280;42474;51.660;5.824;2022-10-22T14:23:53;101300.0;;;20.5;67.5
56594;BME280;42474;51.660;5.824;2022-10-22T14:28:53;101300.0;;;20.4;67.5
56594;BME280;42474;51.660;5.824;2022-10-22T14:33:53;101310.0;;;20.3;67.5
56594;BME280;42474;51.660;5.824;2022-10-22T14:38:53;101310.0;;;20.2;67.5
56594;BME280;42474;51.660;5.824;2022-10-22T14:43:53;101320.0;;;20.1;67.5
56594;BME280;42474;51.660;5.824;2022-10-22T14:48:53;101320.0;;;20.0;67.5
56594;BME280;42474;51.660;5.824;2022-10-22T14:53:53;101320.0;;;20.0;68.0
56594;BME280;42474;51.660;5.824;2022-10-22T14:58:53;101320.0;;;20.0;67.5
56594;BME280;42474;51.660;5.824;2022-10-22T15:03:53;101330.0;;;20.0;68.0
56594;BME280;42474;51.660;5.824;2022-10-22T15:08:53;101340.0;;;20.0;68.0
56594;BME280;42474;51.660;5.824;2022-10-22T15:13:53;101340.0;;;20.0;67.5
56594;BME280;42474;51.660;5.824;2022-10-22T15:18:53;101340.0;;;20.0;67.5
56594;BME280;42474;51.660;5.824;2022-10-22T15:23:53;101350.0;;;19.9;68.0
56594;BME280;42474;51.660;5.824;2022-10-22T15:28:53;101360.0;;;19.8;68.0
56594;BME280;42474;51.660;5.824;2022-10-22T15:33:53;101360.0;;;19.7;67.5
56594;BME280;42474;51.660;5.824;2022-10-22T15:38:53;101360.0;;;19.6;68.0
56594;BME280;42474;51.660;5.824;2022-10-22T15:43:53;101360.0;;;19.5;68.5
56594;BME280;42474;51.660;5.824;2022-10-22T15:48:53;101360.0;;;19.3;68.5
56594;BME280;42474;51.660;5.824;2022-10-22T15:53:54;101370.0;;;19.2;69.0
56594;BME280;42474;51.660;5.824;2022-10-22T15:58:53;101360.0;;;19.0;69.5
56594;BME280;42474;51.660;5.824;2022-10-22T16:03:53;101360.0;;;18.9;69.5
56594;BME280;42474;51.660;5.824;2022-10-22T16:08:55;101360.0;;;18.8;70.0
56594;BME280;42474;51.660;5.824;2022-10-22T16:13:53;101360.0;;;18.6;70.5
56594;BME280;42474;51.660;5.824;2022-10-22T16:18:53;101360.0;;;18.5;70.5
56594;BME280;42474;51.660;5.824;2022-10-22T16:23:53;101360.0;;;18.4;71.0
56594;BME280;42474;51.660;5.824;2022-10-22T16:28:53;101360.0;;;18.2;71.0
56594;BME280;42474;51.660;5.824;2022-10-22T16:33:53;101360.0;;;17.9;71.5
56594;BME280;42474;51.660;5.824;2022-10-22T16:38:53;101360.0;;;17.7;72.0
56594;BME280;42474;51.660;5.824;2022-10-22T16:43:54;101380.0;;;17.5;72.5
56594;BME280;42474;51.660;5.824;2022-10-22T16:48:53;101380.0;;;17.2;73.0
56594;BME280;42474;51.660;5.824;2022-10-22T16:53:54;101400.0;;;17.1;73.0
56594;BME280;42474;51.660;5.824;2022-10-22T16:58:55;101390.0;;;16.9;74.0
56594;BME280;42474;51.660;5.824;2022-10-22T17:03:53;101390.0;;;16.8;74.0
56594;BME280;42474;51.660;5.824;2022-10-22T17:08:53;101400.0;;;16.7;74.5
56594;BME280;42474;51.660;5.824;2022-10-22T17:13:53;101400.0;;;16.6;74.5
56594;BME280;42474;51.660;5.824;2022-10-22T17:18:53;101400.0;;;16.5;75.0
56594;BME280;42474;51.660;5.824;2022-10-22T17:23:53;101400.0;;;16.4;75.5
56594;BME280;42474;51.660;5.824;2022-10-22T17:28:53;101410.0;;;16.3;76.0
56594;BME280;42474;51.660;5.824;2022-10-22T17:33:56;101410.0;;;16.2;76.0
56594;BME280;42474;51.660;5.824;2022-10-22T17:38:55;101420.0;;;16.1;76.5
56594;BME280;42474;51.660;5.824;2022-10-22T17:43:54;101410.0;;;16.0;77.0
56594;BME280;42474;51.660;5.824;2022-10-22T17:48:57;101400.0;;;15.9;76.5
56594;BME280;42474;51.660;5.824;2022-10-22T17:53:53;101420.0;;;15.8;77.5
56594;BME280;42474;51.660;5.824;2022-10-22T17:58:54;101420.0;;;15.7;78.0
56594;BME280;42474;51.660;5.824;2022-10-22T18:03:57;101410.0;;;15.6;78.5
56594;BME280;42474;51.660;5.824;2022-10-22T18:08:53;101420.0;;;15.5;78.5
56594;BME280;42474;51.660;5.824;2022-10-22T18:13:56;101440.0;;;15.4;78.5
56594;BME280;42474;51.660;5.824;2022-10-22T18:18:55;101430.0;;;15.3;79.0
56594;BME280;42474;51.660;5.824;2022-10-22T18:23:53;101430.0;;;15.3;79.0
56594;BME280;42474;51.660;5.824;2022-10-22T18:28:53;101430.0;;;15.2;79.5
56594;BME280;42474;51.660;5.824;2022-10-22T18:33:53;101430.0;;;15.1;79.5
56594;BME280;42474;51.660;5.824;2022-10-22T18:38:54;101440.0;;;14.9;80.0
56594;BME280;42474;51.660;5.824;2022-10-22T18:43:55;101440.0;;;14.9;80.0
56594;BME280;42474;51.660;5.824;2022-10-22T18:48:54;101440.0;;;14.8;80.0
56594;BME280;42474;51.660;5.824;2022-10-22T18:53:53;101440.0;;;14.8;80.5
56594;BME280;42474;51.660;5.824;2022-10-22T18:58:53;101450.0;;;14.7;81.0
56594;BME280;42474;51.660;5.824;2022-10-22T19:03:53;101440.0;;;14.7;81.0
56594;BME280;42474;51.660;5.824;2022-10-22T19:08:53;101430.0;;;14.7;81.5
56594;BME280;42474;51.660;5.824;2022-10-22T19:13:53;101440.0;;;14.6;81.5
56594;BME280;42474;51.660;5.824;2022-10-22T19:18:59;101420.0;;;14.5;82.0
56594;BME280;42474;51.660;5.824;2022-10-22T19:23:53;101420.0;;;14.5;82.0
56594;BME280;42474;51.660;5.824;2022-10-22T19:28:53;101400.0;;;14.4;82.0
56594;BME280;42474;51.660;5.824;2022-10-22T19:33:53;101410.0;;;14.4;82.0
56594;BME280;42474;51.660;5.824;2022-10-22T19:38:53;101410.0;;;14.3;82.5
56594;BME280;42474;51.660;5.824;2022-10-22T19:43:55;101410.0;;;14.2;82.5
56594;BME280;42474;51.660;5.824;2022-10-22T19:48:53;101420.0;;;14.2;83.0
56594;BME280;42474;51.660;5.824;2022-10-22T19:53:58;101410.0;;;14.2;83.5
56594;BME280;42474;51.660;5.824;2022-10-22T19:58:53;101410.0;;;14.2;83.5
56594;BME280;42474;51.660;5.824;2022-10-22T20:03:53;101400.0;;;14.2;83.5
56594;BME280;42474;51.660;5.824;2022-10-22T20:08:53;101400.0;;;14.2;84.0
56594;BME280;42474;51.660;5.824;2022-10-22T20:13:54;101410.0;;;14.2;84.5
56594;BME280;42474;51.660;5.824;2022-10-22T20:18:53;101410.0;;;14.2;84.5
56594;BME280;42474;51.660;5.824;2022-10-22T20:23:53;101420.0;;;14.2;84.5
56594;BME280;42474;51.660;5.824;2022-10-22T20:28:54;101410.0;;;14.3;84.5
56594;BME280;42474;51.660;5.824;2022-10-22T20:33:54;101430.0;;;14.2;84.5
56594;BME280;42474;51.660;5.824;2022-10-22T20:38:57;101420.0;;;14.2;84.5
56594;BME280;42474;51.660;5.824;2022-10-22T20:43:53;101420.0;;;14.2;84.5
56594;BME280;42474;51.660;5.824;2022-10-22T20:48:55;101420.0;;;14.2;85.0
56594;BME280;42474;51.660;5.824;2022-10-22T20:53:53;101420.0;;;14.1;85.0
56594;BME280;42474;51.660;5.824;2022-10-22T20:58:53;101430.0;;;14.1;85.0
56594;BME280;42474;51.660;5.824;2022-10-22T21:03:53;101440.0;;;14.1;85.0
56594;BME280;42474;51.660;5.824;2022-10-22T21:08:53;101430.0;;;14.1;85.0
56594;BME280;42474;51.660;5.824;2022-10-22T21:13:53;101430.0;;;14.0;85.0
56594;BME280;42474;51.660;5.824;2022-10-22T21:18:54;101420.0;;;14.0;85.0
56594;BME280;42474;51.660;5.824;2022-10-22T21:23:53;101430.0;;;14.0;85.5
56594;BME280;42474;51.660;5.824;2022-10-22T21:28:53;101430.0;;;13.9;85.5
56594;BME280;42474;51.660;5.824;2022-10-22T21:33:53;101430.0;;;13.9;85.5
56594;BME280;42474;51.660;5.824;2022-10-22T21:38:53;101410.0;;;13.9;85.5
56594;BME280;42474;51.660;5.824;2022-10-22T21:43:53;101430.0;;;14.0;86.0
56594;BME280;42474;51.660;5.824;2022-10-22T21:48:54;101420.0;;;13.9;86.0
56594;BME280;42474;51.660;5.824;2022-10-22T21:53:53;101430.0;;;14.0;86.0
56594;BME280;42474;51.660;5.824;2022-10-22T21:58:53;101420.0;;;14.0;86.0
56594;BME280;42474;51.660;5.824;2022-10-22T22:08:53;101430.0;;;14.0;86.0
56594;BME280;42474;51.660;5.824;2022-10-22T22:13:55;101430.0;;;14.0;86.0
56594;BME280;42474;51.660;5.824;2022-10-22T22:18:53;101420.0;;;14.0;86.0
56594;BME280;42474;51.660;5.824;2022-10-22T22:23:54;101430.0;;;14.0;86.0
56594;BME280;42474;51.660;5.824;2022-10-22T22:28:53;101410.0;;;13.9;86.0
56594;BME280;42474;51.660;5.824;2022-10-22T22:33:56;101410.0;;;14.0;86.0
56594;BME280;42474;51.660;5.824;2022-10-22T22:38:53;101410.0;;;14.0;86.0
56594;BME280;42474;51.660;5.824;2022-10-22T22:43:53;101420.0;;;14.0;86.0
56594;BME280;42474;51.660;5.824;2022-10-22T22:48:53;101410.0;;;13.9;86.5
56594;BME280;42474;51.660;5.824;2022-10-22T22:53:55;101410.0;;;13.9;86.5
56594;BME280;42474;51.660;5.824;2022-10-22T22:58:54;101390.0;;;13.9;86.5
56594;BME280;42474;51.660;5.824;2022-10-22T23:03:54;101390.0;;;13.9;87.0
56594;BME280;42474;51.660;5.824;2022-10-22T23:08:54;101390.0;;;13.9;87.0
56594;BME280;42474;51.660;5.824;2022-10-22T23:13:55;101380.0;;;13.8;87.0
56594;BME280;42474;51.660;5.824;2022-10-22T23:18:54;101370.0;;;13.8;87.0
56594;BME280;42474;51.660;5.824;2022-10-22T23:23:55;101380.0;;;13.7;87.0
56594;BME280;42474;51.660;5.824;2022-10-22T23:28:53;101380.0;;;13.7;87.0
56594;BME280;42474;51.660;5.824;2022-10-22T23:33:53;101390.0;;;13.7;87.0
56594;BME280;42474;51.660;5.824;2022-10-22T23:38:53;101390.0;;;13.7;87.0
56594;BME280;42474;51.660;5.824;2022-10-22T23:43:53;101390.0;;;13.6;87.0
56594;BME280;42474;51.660;5.824;2022-10-22T23:48:53;101380.0;;;13.6;87.0
56594;BME280;42474;51.660;5.824;2022-10-22T23:53:54;101380.0;;;13.5;87.0
56594;BME280;42474;51.660;5.824;2022-10-22T23:58:54;101370.0;;;13.5;87.0
